sensor_id;sensor_type;location;lat;lon;timestamp;temperature;humidity
12568;DHT22;6349;50.904;6.136;2023-01-30T00:00:06;3.30;99.90
12568;DHT22;6349;50.904;6.136;2023-01-30T00:02:07;3.30;99.90
12568;DHT22;6349;50.904;6.136;2023-01-30T00:04:08;3.30;99.90
12568;DHT22;6349;50.904;6.136;2023-01-30T00:06:09;3.30;99.90
12568;DHT22;6349;50.904;6.136;2023-01-30T00:08:10;3.30;99.90
12568;DHT22;6349;50.904;6.136;2023-01-30T00:10:10;3.30;99.90
12568;DHT22;6349;50.904;6.136;2023-01-30T00:12:11;3.30;99.90
12568;DHT22;6349;50.904;6.136;2023-01-30T00:14:11;3.40;99.90
12568;DHT22;6349;50.904;6.136;2023-01-30T00:16:12;3.30;99.90
12568;DHT22;6349;50.904;6.136;2023-01-30T00:18:13;3.40;99.90
12568;DHT22;6349;50.904;6.136;2023-01-30T00:20:13;3.40;99.90
12568;DHT22;6349;50.904;6.136;2023-01-30T00:22:14;3.40;99.90
12568;DHT22;6349;50.904;6.136;2023-01-30T00:24:15;3.40;99.90
12568;DHT22;6349;50.904;6.136;2023-01-30T00:26:15;3.50;99.90
12568;DHT22;6349;50.904;6.136;2023-01-30T00:28:16;3.50;99.90
12568;DHT22;6349;50.904;6.136;2023-01-30T00:30:17;3.50;99.90
12568;DHT22;6349;50.904;6.136;2023-01-30T00:32:17;3.50;99.90
12568;DHT22;6349;50.904;6.136;2023-01-30T00:34:18;3.50;99.90
12568;DHT22;6349;50.904;6.136;2023-01-30T00:36:18;3.50;99.90
12568;DHT22;6349;50.904;6.136;2023-01-30T00:38:20;3.50;99.90
12568;DHT22;6349;50.904;6.136;2023-01-30T00:40:20;3.50;99.90
12568;DHT22;6349;50.904;6.136;2023-01-30T00:42:21;3.50;99.90
12568;DHT22;6349;50.904;6.136;2023-01-30T00:44:41;3.50;99.90
12568;DHT22;6349;50.904;6.136;2023-01-30T00:47:02;3.50;99.90
12568;DHT22;6349;50.904;6.136;2023-01-30T00:49:04;3.50;99.90
12568;DHT22;6349;50.904;6.136;2023-01-30T00:51:05;3.40;99.90
12568;DHT22;6349;50.904;6.136;2023-01-30T00:53:06;3.50;99.90
12568;DHT22;6349;50.904;6.136;2023-01-30T00:55:07;3.40;99.90
12568;DHT22;6349;50.904;6.136;2023-01-30T00:57:07;3.50;99.90
12568;DHT22;6349;50.904;6.136;2023-01-30T00:59:08;3.50;99.90
12568;DHT22;6349;50.904;6.136;2023-01-30T01:01:08;3.40;99.90
12568;DHT22;6349;50.904;6.136;2023-01-30T01:03:09;3.40;99.90
12568;DHT22;6349;50.904;6.136;2023-01-30T01:05:10;3.50;99.90
12568;DHT22;6349;50.904;6.136;2023-01-30T01:07:12;3.50;99.90
12568;DHT22;6349;50.904;6.136;2023-01-30T01:09:13;3.50;99.90
12568;DHT22;6349;50.904;6.136;2023-01-30T01:11:13;3.50;99.90
12568;DHT22;6349;50.904;6.136;2023-01-30T01:13:23;3.50;99.90
12568;DHT22;6349;50.904;6.136;2023-01-30T01:15:25;3.50;99.90
12568;DHT22;6349;50.904;6.136;2023-01-30T01:17:26;3.50;99.90
12568;DHT22;6349;50.904;6.136;2023-01-30T01:19:26;3.50;99.90
12568;DHT22;6349;50.904;6.136;2023-01-30T01:21:27;3.50;99.90
12568;DHT22;6349;50.904;6.136;2023-01-30T01:23:28;3.60;99.90
12568;DHT22;6349;50.904;6.136;2023-01-30T01:25:29;3.50;99.90
12568;DHT22;6349;50.904;6.136;2023-01-30T01:27:29;3.60;99.90
12568;DHT22;6349;50.904;6.136;2023-01-30T01:29:30;3.60;99.90
12568;DHT22;6349;50.904;6.136;2023-01-30T01:31:31;3.60;99.90
12568;DHT22;6349;50.904;6.136;2023-01-30T01:33:31;3.60;99.90
12568;DHT22;6349;50.904;6.136;2023-01-30T01:35:32;3.60;99.90
12568;DHT22;6349;50.904;6.136;2023-01-30T01:37:33;3.60;99.90
12568;DHT22;6349;50.904;6.136;2023-01-30T01:39:33;3.60;99.90
12568;DHT22;6349;50.904;6.136;2023-01-30T01:41:54;3.70;99.90
12568;DHT22;6349;50.904;6.136;2023-01-30T01:46:19;3.60;99.90
12568;DHT22;6349;50.904;6.136;2023-01-30T01:48:34;3.70;99.90
12568;DHT22;6349;50.904;6.136;2023-01-30T01:50:55;3.70;99.90
12568;DHT22;6349;50.904;6.136;2023-01-30T01:52:58;3.70;99.90
12568;DHT22;6349;50.904;6.136;2023-01-30T01:55:04;3.70;99.90
12568;DHT22;6349;50.904;6.136;2023-01-30T01:57:12;3.70;99.90
12568;DHT22;6349;50.904;6.136;2023-01-30T01:59:25;3.80;99.90
12568;DHT22;6349;50.904;6.136;2023-01-30T02:01:27;3.80;99.90
12568;DHT22;6349;50.904;6.136;2023-01-30T02:03:32;3.80;99.90
12568;DHT22;6349;50.904;6.136;2023-01-30T02:05:38;3.80;99.90
12568;DHT22;6349;50.904;6.136;2023-01-30T02:10:01;3.80;99.90
12568;DHT22;6349;50.904;6.136;2023-01-30T02:12:03;3.90;99.90
12568;DHT22;6349;50.904;6.136;2023-01-30T02:14:09;3.90;99.90
12568;DHT22;6349;50.904;6.136;2023-01-30T02:16:10;3.90;99.90
12568;DHT22;6349;50.904;6.136;2023-01-30T02:18:13;4.00;99.90
12568;DHT22;6349;50.904;6.136;2023-01-30T02:20:32;4.00;99.90
12568;DHT22;6349;50.904;6.136;2023-01-30T02:23:01;4.00;99.90
12568;DHT22;6349;50.904;6.136;2023-01-30T02:28:11;4.00;99.90
12568;DHT22;6349;50.904;6.136;2023-01-30T02:31:06;4.00;99.90
12568;DHT22;6349;50.904;6.136;2023-01-30T02:35:30;3.90;99.90
12568;DHT22;6349;50.904;6.136;2023-01-30T02:37:55;4.00;99.90
12568;DHT22;6349;50.904;6.136;2023-01-30T02:40:17;4.00;99.90
12568;DHT22;6349;50.904;6.136;2023-01-30T02:42:44;4.00;99.90
12568;DHT22;6349;50.904;6.136;2023-01-30T02:44:56;3.90;99.90
12568;DHT22;6349;50.904;6.136;2023-01-30T02:47:05;3.90;99.90
12568;DHT22;6349;50.904;6.136;2023-01-30T02:49:15;3.90;99.90
12568;DHT22;6349;50.904;6.136;2023-01-30T02:51:21;3.90;99.90
12568;DHT22;6349;50.904;6.136;2023-01-30T02:53:23;3.90;99.90
12568;DHT22;6349;50.904;6.136;2023-01-30T02:55:26;3.90;99.90
12568;DHT22;6349;50.904;6.136;2023-01-30T02:57:27;3.80;99.90
12568;DHT22;6349;50.904;6.136;2023-01-30T02:59:35;3.90;99.90
12568;DHT22;6349;50.904;6.136;2023-01-30T03:01:53;3.90;99.90
12568;DHT22;6349;50.904;6.136;2023-01-30T03:04:33;3.90;99.90
12568;DHT22;6349;50.904;6.136;2023-01-30T03:09:24;3.90;99.90
12568;DHT22;6349;50.904;6.136;2023-01-30T03:14:08;3.90;99.90
12568;DHT22;6349;50.904;6.136;2023-01-30T03:16:16;4.00;99.90
12568;DHT22;6349;50.904;6.136;2023-01-30T03:18:18;3.90;99.90
12568;DHT22;6349;50.904;6.136;2023-01-30T03:20:20;4.00;99.90
12568;DHT22;6349;50.904;6.136;2023-01-30T03:22:21;4.00;99.90
12568;DHT22;6349;50.904;6.136;2023-01-30T03:24:22;4.00;99.90
12568;DHT22;6349;50.904;6.136;2023-01-30T03:26:26;4.00;99.90
12568;DHT22;6349;50.904;6.136;2023-01-30T03:28:28;4.00;99.90
12568;DHT22;6349;50.904;6.136;2023-01-30T03:30:29;4.00;99.90
12568;DHT22;6349;50.904;6.136;2023-01-30T03:32:30;4.00;99.90
12568;DHT22;6349;50.904;6.136;2023-01-30T03:34:30;4.00;99.90
12568;DHT22;6349;50.904;6.136;2023-01-30T03:36:31;4.00;99.90
12568;DHT22;6349;50.904;6.136;2023-01-30T03:38:33;4.00;99.90
12568;DHT22;6349;50.904;6.136;2023-01-30T03:40:34;4.00;99.90
12568;DHT22;6349;50.904;6.136;2023-01-30T03:42:34;4.00;99.90
12568;DHT22;6349;50.904;6.136;2023-01-30T03:44:35;4.10;99.90
12568;DHT22;6349;50.904;6.136;2023-01-30T03:46:36;4.10;99.90
12568;DHT22;6349;50.904;6.136;2023-01-30T03:48:36;4.10;99.90
12568;DHT22;6349;50.904;6.136;2023-01-30T03:50:37;4.10;99.90
12568;DHT22;6349;50.904;6.136;2023-01-30T03:52:38;4.20;99.90
12568;DHT22;6349;50.904;6.136;2023-01-30T03:54:38;4.20;99.90
12568;DHT22;6349;50.904;6.136;2023-01-30T03:56:39;4.20;99.90
12568;DHT22;6349;50.904;6.136;2023-01-30T03:58:39;4.20;99.90
12568;DHT22;6349;50.904;6.136;2023-01-30T04:00:40;4.20;99.90
12568;DHT22;6349;50.904;6.136;2023-01-30T04:02:41;4.30;99.90
12568;DHT22;6349;50.904;6.136;2023-01-30T04:04:41;4.30;99.90
12568;DHT22;6349;50.904;6.136;2023-01-30T04:06:42;4.30;99.90
12568;DHT22;6349;50.904;6.136;2023-01-30T04:08:43;4.30;99.90
12568;DHT22;6349;50.904;6.136;2023-01-30T04:10:43;4.30;99.90
12568;DHT22;6349;50.904;6.136;2023-01-30T04:12:45;4.30;99.90
12568;DHT22;6349;50.904;6.136;2023-01-30T04:14:46;4.40;99.90
12568;DHT22;6349;50.904;6.136;2023-01-30T04:16:46;4.40;99.90
12568;DHT22;6349;50.904;6.136;2023-01-30T04:18:47;4.40;99.90
12568;DHT22;6349;50.904;6.136;2023-01-30T04:20:48;4.40;99.90
12568;DHT22;6349;50.904;6.136;2023-01-30T04:22:48;4.40;99.90
12568;DHT22;6349;50.904;6.136;2023-01-30T04:24:49;4.40;99.90
12568;DHT22;6349;50.904;6.136;2023-01-30T04:26:49;4.40;99.90
12568;DHT22;6349;50.904;6.136;2023-01-30T04:28:50;4.50;99.90
12568;DHT22;6349;50.904;6.136;2023-01-30T04:30:52;4.50;99.90
12568;DHT22;6349;50.904;6.136;2023-01-30T04:32:53;4.50;99.90
12568;DHT22;6349;50.904;6.136;2023-01-30T04:34:54;4.50;99.90
12568;DHT22;6349;50.904;6.136;2023-01-30T04:36:54;4.50;99.90
12568;DHT22;6349;50.904;6.136;2023-01-30T04:38:55;4.50;99.90
12568;DHT22;6349;50.904;6.136;2023-01-30T04:40:58;4.50;99.90
12568;DHT22;6349;50.904;6.136;2023-01-30T04:42:58;4.50;99.90
12568;DHT22;6349;50.904;6.136;2023-01-30T04:44:59;4.50;99.90
12568;DHT22;6349;50.904;6.136;2023-01-30T04:47:00;4.50;99.90
12568;DHT22;6349;50.904;6.136;2023-01-30T04:49:00;4.60;99.90
12568;DHT22;6349;50.904;6.136;2023-01-30T04:51:01;4.60;99.90
12568;DHT22;6349;50.904;6.136;2023-01-30T04:53:02;4.60;99.90
12568;DHT22;6349;50.904;6.136;2023-01-30T04:55:03;4.60;99.90
12568;DHT22;6349;50.904;6.136;2023-01-30T04:57:04;4.60;99.90
12568;DHT22;6349;50.904;6.136;2023-01-30T04:59:04;4.60;99.90
12568;DHT22;6349;50.904;6.136;2023-01-30T05:01:15;4.60;99.90
12568;DHT22;6349;50.904;6.136;2023-01-30T05:03:16;4.60;99.90
12568;DHT22;6349;50.904;6.136;2023-01-30T05:05:17;4.60;99.90
12568;DHT22;6349;50.904;6.136;2023-01-30T05:07:18;4.60;99.90
12568;DHT22;6349;50.904;6.136;2023-01-30T05:09:18;4.60;99.90
12568;DHT22;6349;50.904;6.136;2023-01-30T05:11:20;4.60;99.90
12568;DHT22;6349;50.904;6.136;2023-01-30T05:13:21;4.60;99.90
12568;DHT22;6349;50.904;6.136;2023-01-30T05:15:21;4.60;99.90
12568;DHT22;6349;50.904;6.136;2023-01-30T05:17:22;4.70;99.90
12568;DHT22;6349;50.904;6.136;2023-01-30T05:19:23;4.60;99.90
12568;DHT22;6349;50.904;6.136;2023-01-30T05:21:25;4.60;99.90
12568;DHT22;6349;50.904;6.136;2023-01-30T05:23:27;4.60;99.90
12568;DHT22;6349;50.904;6.136;2023-01-30T05:25:27;4.60;99.90
12568;DHT22;6349;50.904;6.136;2023-01-30T05:27:28;4.70;99.90
12568;DHT22;6349;50.904;6.136;2023-01-30T05:29:29;4.70;99.90
12568;DHT22;6349;50.904;6.136;2023-01-30T05:31:31;4.60;99.90
12568;DHT22;6349;50.904;6.136;2023-01-30T05:33:31;4.60;99.90
12568;DHT22;6349;50.904;6.136;2023-01-30T05:35:32;4.70;99.90
12568;DHT22;6349;50.904;6.136;2023-01-30T05:37:33;4.60;99.90
12568;DHT22;6349;50.904;6.136;2023-01-30T05:39:33;4.70;99.90
12568;DHT22;6349;50.904;6.136;2023-01-30T05:41:34;4.70;99.90
12568;DHT22;6349;50.904;6.136;2023-01-30T05:43:35;4.70;99.90
12568;DHT22;6349;50.904;6.136;2023-01-30T05:45:36;4.70;99.90
12568;DHT22;6349;50.904;6.136;2023-01-30T05:47:36;4.70;99.90
12568;DHT22;6349;50.904;6.136;2023-01-30T05:49:37;4.70;99.90
12568;DHT22;6349;50.904;6.136;2023-01-30T05:51:38;4.70;99.90
12568;DHT22;6349;50.904;6.136;2023-01-30T05:53:38;4.70;99.90
12568;DHT22;6349;50.904;6.136;2023-01-30T05:55:39;4.70;99.90
12568;DHT22;6349;50.904;6.136;2023-01-30T05:57:40;4.70;99.90
12568;DHT22;6349;50.904;6.136;2023-01-30T05:59:40;4.80;99.90
12568;DHT22;6349;50.904;6.136;2023-01-30T06:01:41;4.70;99.90
12568;DHT22;6349;50.904;6.136;2023-01-30T06:03:41;4.80;99.90
12568;DHT22;6349;50.904;6.136;2023-01-30T06:05:42;4.80;99.90
12568;DHT22;6349;50.904;6.136;2023-01-30T06:07:43;4.80;99.90
12568;DHT22;6349;50.904;6.136;2023-01-30T06:09:43;4.90;99.90
12568;DHT22;6349;50.904;6.136;2023-01-30T06:11:44;4.90;99.90
12568;DHT22;6349;50.904;6.136;2023-01-30T06:13:45;4.90;99.90
12568;DHT22;6349;50.904;6.136;2023-01-30T06:15:48;5.00;99.90
12568;DHT22;6349;50.904;6.136;2023-01-30T06:17:49;5.00;99.90
12568;DHT22;6349;50.904;6.136;2023-01-30T06:19:49;5.00;99.90
12568;DHT22;6349;50.904;6.136;2023-01-30T06:21:50;5.00;99.90
12568;DHT22;6349;50.904;6.136;2023-01-30T06:23:51;5.00;99.90
12568;DHT22;6349;50.904;6.136;2023-01-30T06:25:52;5.10;99.90
12568;DHT22;6349;50.904;6.136;2023-01-30T06:27:53;5.10;99.90
12568;DHT22;6349;50.904;6.136;2023-01-30T06:29:54;5.10;99.90
12568;DHT22;6349;50.904;6.136;2023-01-30T06:31:55;5.10;99.90
12568;DHT22;6349;50.904;6.136;2023-01-30T06:33:55;5.10;99.90
12568;DHT22;6349;50.904;6.136;2023-01-30T06:35:56;5.20;99.90
12568;DHT22;6349;50.904;6.136;2023-01-30T06:37:56;5.20;99.90
12568;DHT22;6349;50.904;6.136;2023-01-30T06:39:57;5.20;99.90
12568;DHT22;6349;50.904;6.136;2023-01-30T06:41:58;5.30;99.90
12568;DHT22;6349;50.904;6.136;2023-01-30T06:43:58;5.30;99.90
12568;DHT22;6349;50.904;6.136;2023-01-30T06:45:59;5.30;99.90
12568;DHT22;6349;50.904;6.136;2023-01-30T06:48:00;5.30;99.90
12568;DHT22;6349;50.904;6.136;2023-01-30T06:50:00;5.30;99.90
12568;DHT22;6349;50.904;6.136;2023-01-30T06:52:01;5.30;99.90
12568;DHT22;6349;50.904;6.136;2023-01-30T06:54:02;5.30;99.90
12568;DHT22;6349;50.904;6.136;2023-01-30T06:56:02;5.30;99.90
12568;DHT22;6349;50.904;6.136;2023-01-30T06:58:05;5.20;99.90
12568;DHT22;6349;50.904;6.136;2023-01-30T07:00:11;5.30;99.90
12568;DHT22;6349;50.904;6.136;2023-01-30T07:02:13;5.30;99.90
12568;DHT22;6349;50.904;6.136;2023-01-30T07:04:14;5.30;99.90
12568;DHT22;6349;50.904;6.136;2023-01-30T07:06:14;5.30;99.90
12568;DHT22;6349;50.904;6.136;2023-01-30T07:08:15;5.40;99.90
12568;DHT22;6349;50.904;6.136;2023-01-30T07:10:17;5.40;99.90
12568;DHT22;6349;50.904;6.136;2023-01-30T07:12:17;5.40;99.90
12568;DHT22;6349;50.904;6.136;2023-01-30T07:14:18;5.40;99.90
12568;DHT22;6349;50.904;6.136;2023-01-30T07:16:22;5.40;99.90
12568;DHT22;6349;50.904;6.136;2023-01-30T07:18:28;5.40;99.90
12568;DHT22;6349;50.904;6.136;2023-01-30T07:20:29;5.40;99.90
12568;DHT22;6349;50.904;6.136;2023-01-30T07:22:30;5.40;99.90
12568;DHT22;6349;50.904;6.136;2023-01-30T07:24:31;5.50;99.90
12568;DHT22;6349;50.904;6.136;2023-01-30T07:26:31;5.50;99.90
12568;DHT22;6349;50.904;6.136;2023-01-30T07:28:32;5.50;99.90
12568;DHT22;6349;50.904;6.136;2023-01-30T07:30:33;5.50;99.90
12568;DHT22;6349;50.904;6.136;2023-01-30T07:32:35;5.50;99.90
12568;DHT22;6349;50.904;6.136;2023-01-30T07:34:36;5.50;99.90
12568;DHT22;6349;50.904;6.136;2023-01-30T07:36:36;5.50;99.90
12568;DHT22;6349;50.904;6.136;2023-01-30T07:38:37;5.50;99.90
12568;DHT22;6349;50.904;6.136;2023-01-30T07:40:38;5.60;99.90
12568;DHT22;6349;50.904;6.136;2023-01-30T07:42:40;5.60;99.90
12568;DHT22;6349;50.904;6.136;2023-01-30T07:44:41;5.60;99.90
12568;DHT22;6349;50.904;6.136;2023-01-30T07:46:41;5.60;99.90
12568;DHT22;6349;50.904;6.136;2023-01-30T07:48:44;5.60;99.90
12568;DHT22;6349;50.904;6.136;2023-01-30T07:50:46;5.60;99.90
12568;DHT22;6349;50.904;6.136;2023-01-30T07:52:47;5.60;99.90
12568;DHT22;6349;50.904;6.136;2023-01-30T07:54:48;5.60;99.90
12568;DHT22;6349;50.904;6.136;2023-01-30T07:56:50;5.70;99.90
12568;DHT22;6349;50.904;6.136;2023-01-30T07:58:53;5.70;99.90
12568;DHT22;6349;50.904;6.136;2023-01-30T08:00:55;5.70;99.90
12568;DHT22;6349;50.904;6.136;2023-01-30T08:02:57;5.70;99.90
12568;DHT22;6349;50.904;6.136;2023-01-30T08:04:59;5.70;99.90
12568;DHT22;6349;50.904;6.136;2023-01-30T08:07:01;5.70;99.90
12568;DHT22;6349;50.904;6.136;2023-01-30T08:09:06;5.70;99.90
12568;DHT22;6349;50.904;6.136;2023-01-30T08:11:08;5.70;99.90
12568;DHT22;6349;50.904;6.136;2023-01-30T08:13:10;5.70;99.90
12568;DHT22;6349;50.904;6.136;2023-01-30T08:15:13;5.70;99.90
12568;DHT22;6349;50.904;6.136;2023-01-30T08:17:19;5.70;99.90
12568;DHT22;6349;50.904;6.136;2023-01-30T08:19:22;5.70;99.90
12568;DHT22;6349;50.904;6.136;2023-01-30T08:21:25;5.70;99.90
12568;DHT22;6349;50.904;6.136;2023-01-30T08:23:27;5.70;99.90
12568;DHT22;6349;50.904;6.136;2023-01-30T08:25:30;5.70;99.90
12568;DHT22;6349;50.904;6.136;2023-01-30T08:27:32;5.70;99.90
12568;DHT22;6349;50.904;6.136;2023-01-30T08:29:33;5.70;99.90
12568;DHT22;6349;50.904;6.136;2023-01-30T08:31:35;5.70;99.90
12568;DHT22;6349;50.904;6.136;2023-01-30T08:33:36;5.70;99.90
12568;DHT22;6349;50.904;6.136;2023-01-30T08:35:39;5.70;99.90
12568;DHT22;6349;50.904;6.136;2023-01-30T08:37:41;5.70;99.90
12568;DHT22;6349;50.904;6.136;2023-01-30T08:39:41;5.80;99.90
12568;DHT22;6349;50.904;6.136;2023-01-30T08:41:43;5.80;99.90
12568;DHT22;6349;50.904;6.136;2023-01-30T08:43:45;5.80;99.90
12568;DHT22;6349;50.904;6.136;2023-01-30T08:45:48;5.90;99.90
12568;DHT22;6349;50.904;6.136;2023-01-30T08:47:49;5.90;99.90
12568;DHT22;6349;50.904;6.136;2023-01-30T08:49:50;5.90;99.90
12568;DHT22;6349;50.904;6.136;2023-01-30T08:51:53;5.90;99.90
12568;DHT22;6349;50.904;6.136;2023-01-30T08:53:54;5.90;99.90
12568;DHT22;6349;50.904;6.136;2023-01-30T08:55:55;5.90;99.90
12568;DHT22;6349;50.904;6.136;2023-01-30T08:57:57;6.00;99.90
12568;DHT22;6349;50.904;6.136;2023-01-30T08:59:59;6.00;99.90
12568;DHT22;6349;50.904;6.136;2023-01-30T09:02:01;6.00;99.90
12568;DHT22;6349;50.904;6.136;2023-01-30T09:04:06;6.00;99.90
12568;DHT22;6349;50.904;6.136;2023-01-30T09:06:07;6.00;99.90
12568;DHT22;6349;50.904;6.136;2023-01-30T09:08:27;6.00;99.90
12568;DHT22;6349;50.904;6.136;2023-01-30T09:10:30;6.10;99.90
12568;DHT22;6349;50.904;6.136;2023-01-30T09:12:32;6.10;99.90
12568;DHT22;6349;50.904;6.136;2023-01-30T09:14:34;6.10;99.90
12568;DHT22;6349;50.904;6.136;2023-01-30T09:16:35;6.10;99.90
12568;DHT22;6349;50.904;6.136;2023-01-30T09:18:40;6.10;99.90
12568;DHT22;6349;50.904;6.136;2023-01-30T09:20:44;6.10;99.90
12568;DHT22;6349;50.904;6.136;2023-01-30T09:22:48;6.10;99.90
12568;DHT22;6349;50.904;6.136;2023-01-30T09:24:50;6.10;99.90
12568;DHT22;6349;50.904;6.136;2023-01-30T09:26:51;6.20;99.90
12568;DHT22;6349;50.904;6.136;2023-01-30T09:29:17;6.30;99.90
12568;DHT22;6349;50.904;6.136;2023-01-30T09:31:19;6.30;99.90
12568;DHT22;6349;50.904;6.136;2023-01-30T09:33:20;6.30;99.90
12568;DHT22;6349;50.904;6.136;2023-01-30T09:35:20;6.30;99.90
12568;DHT22;6349;50.904;6.136;2023-01-30T09:37:21;6.30;99.90
12568;DHT22;6349;50.904;6.136;2023-01-30T09:39:22;6.30;99.90
12568;DHT22;6349;50.904;6.136;2023-01-30T09:46:47;6.30;99.90
12568;DHT22;6349;50.904;6.136;2023-01-30T09:49:05;6.40;99.90
12568;DHT22;6349;50.904;6.136;2023-01-30T09:51:24;6.40;99.90
12568;DHT22;6349;50.904;6.136;2023-01-30T09:56:07;6.50;99.90
12568;DHT22;6349;50.904;6.136;2023-01-30T09:58:16;6.50;99.90
12568;DHT22;6349;50.904;6.136;2023-01-30T10:00:35;6.60;99.90
12568;DHT22;6349;50.904;6.136;2023-01-30T10:03:18;6.60;99.90
12568;DHT22;6349;50.904;6.136;2023-01-30T10:05:11;6.70;99.90
12568;DHT22;6349;50.904;6.136;2023-01-30T10:08:01;6.70;99.90
12568;DHT22;6349;50.904;6.136;2023-01-30T10:10:06;6.80;99.90
12568;DHT22;6349;50.904;6.136;2023-01-30T10:12:34;6.80;99.90
12568;DHT22;6349;50.904;6.136;2023-01-30T10:19:50;6.80;99.90
12568;DHT22;6349;50.904;6.136;2023-01-30T10:22:05;6.80;99.90
12568;DHT22;6349;50.904;6.136;2023-01-30T10:24:37;6.80;99.90
12568;DHT22;6349;50.904;6.136;2023-01-30T10:26:46;6.90;99.90
12568;DHT22;6349;50.904;6.136;2023-01-30T10:29:44;7.00;99.90
12568;DHT22;6349;50.904;6.136;2023-01-30T10:34:06;6.80;99.90
12568;DHT22;6349;50.904;6.136;2023-01-30T10:36:17;6.90;99.90
12568;DHT22;6349;50.904;6.136;2023-01-30T10:38:24;7.00;99.90
12568;DHT22;6349;50.904;6.136;2023-01-30T10:40:34;7.00;99.90
12568;DHT22;6349;50.904;6.136;2023-01-30T10:42:48;7.00;99.90
12568;DHT22;6349;50.904;6.136;2023-01-30T10:44:52;7.00;99.90
12568;DHT22;6349;50.904;6.136;2023-01-30T10:47:32;7.00;99.90
12568;DHT22;6349;50.904;6.136;2023-01-30T10:49:41;7.00;99.90
12568;DHT22;6349;50.904;6.136;2023-01-30T10:51:59;7.10;99.90
12568;DHT22;6349;50.904;6.136;2023-01-30T10:54:13;7.00;99.90
12568;DHT22;6349;50.904;6.136;2023-01-30T10:56:33;7.10;99.90
12568;DHT22;6349;50.904;6.136;2023-01-30T11:01:12;7.10;99.90
12568;DHT22;6349;50.904;6.136;2023-01-30T11:03:36;7.20;99.90
12568;DHT22;6349;50.904;6.136;2023-01-30T11:08:30;7.10;99.90
12568;DHT22;6349;50.904;6.136;2023-01-30T11:10:31;7.20;99.90
12568;DHT22;6349;50.904;6.136;2023-01-30T11:12:32;7.20;99.90
12568;DHT22;6349;50.904;6.136;2023-01-30T11:14:58;7.20;99.90
12568;DHT22;6349;50.904;6.136;2023-01-30T11:16:59;7.20;99.90
12568;DHT22;6349;50.904;6.136;2023-01-30T11:19:04;7.20;99.90
12568;DHT22;6349;50.904;6.136;2023-01-30T11:21:09;7.20;99.90
12568;DHT22;6349;50.904;6.136;2023-01-30T11:23:31;7.20;99.90
12568;DHT22;6349;50.904;6.136;2023-01-30T11:25:49;7.20;99.90
12568;DHT22;6349;50.904;6.136;2023-01-30T11:27:54;7.20;99.90
12568;DHT22;6349;50.904;6.136;2023-01-30T11:30:15;7.20;99.90
12568;DHT22;6349;50.904;6.136;2023-01-30T11:32:26;7.20;99.90
12568;DHT22;6349;50.904;6.136;2023-01-30T11:34:27;7.20;99.90
12568;DHT22;6349;50.904;6.136;2023-01-30T11:36:30;7.20;99.90
12568;DHT22;6349;50.904;6.136;2023-01-30T11:38:33;7.10;99.90
12568;DHT22;6349;50.904;6.136;2023-01-30T11:40:38;7.10;99.90
12568;DHT22;6349;50.904;6.136;2023-01-30T11:42:46;7.10;99.90
12568;DHT22;6349;50.904;6.136;2023-01-30T11:44:55;7.10;99.90
12568;DHT22;6349;50.904;6.136;2023-01-30T11:47:00;7.10;99.90
12568;DHT22;6349;50.904;6.136;2023-01-30T11:49:04;7.20;99.90
12568;DHT22;6349;50.904;6.136;2023-01-30T11:51:11;7.20;99.90
12568;DHT22;6349;50.904;6.136;2023-01-30T11:55:45;7.10;99.90
12568;DHT22;6349;50.904;6.136;2023-01-30T11:57:49;7.10;99.90
12568;DHT22;6349;50.904;6.136;2023-01-30T11:59:56;7.10;99.90
12568;DHT22;6349;50.904;6.136;2023-01-30T12:02:22;7.00;99.90
12568;DHT22;6349;50.904;6.136;2023-01-30T12:04:25;7.00;99.90
12568;DHT22;6349;50.904;6.136;2023-01-30T12:06:33;7.00;99.90
12568;DHT22;6349;50.904;6.136;2023-01-30T12:08:38;7.00;99.90
12568;DHT22;6349;50.904;6.136;2023-01-30T12:10:44;7.00;99.90
12568;DHT22;6349;50.904;6.136;2023-01-30T12:12:49;6.90;99.90
12568;DHT22;6349;50.904;6.136;2023-01-30T12:14:53;6.90;99.90
12568;DHT22;6349;50.904;6.136;2023-01-30T12:17:09;6.90;99.90
12568;DHT22;6349;50.904;6.136;2023-01-30T12:19:35;6.90;99.90
12568;DHT22;6349;50.904;6.136;2023-01-30T12:22:01;6.90;99.90
12568;DHT22;6349;50.904;6.136;2023-01-30T12:24:19;6.80;99.90
12568;DHT22;6349;50.904;6.136;2023-01-30T12:26:34;6.80;99.90
12568;DHT22;6349;50.904;6.136;2023-01-30T12:28:52;6.80;99.90
12568;DHT22;6349;50.904;6.136;2023-01-30T12:31:07;6.90;99.90
12568;DHT22;6349;50.904;6.136;2023-01-30T12:33:14;6.80;99.90
12568;DHT22;6349;50.904;6.136;2023-01-30T12:35:18;6.80;99.90
12568;DHT22;6349;50.904;6.136;2023-01-30T12:37:41;6.80;99.90
12568;DHT22;6349;50.904;6.136;2023-01-30T12:40:09;6.80;99.90
12568;DHT22;6349;50.904;6.136;2023-01-30T12:45:10;6.80;99.90
12568;DHT22;6349;50.904;6.136;2023-01-30T12:47:23;6.80;99.90
12568;DHT22;6349;50.904;6.136;2023-01-30T12:55:06;6.90;99.90
12568;DHT22;6349;50.904;6.136;2023-01-30T12:57:32;6.90;99.90
12568;DHT22;6349;50.904;6.136;2023-01-30T13:02:29;6.90;99.90
12568;DHT22;6349;50.904;6.136;2023-01-30T13:05:04;6.90;99.90
12568;DHT22;6349;50.904;6.136;2023-01-30T13:07:30;6.90;99.90
12568;DHT22;6349;50.904;6.136;2023-01-30T13:09:47;6.90;99.90
12568;DHT22;6349;50.904;6.136;2023-01-30T13:14:33;6.80;99.90
12568;DHT22;6349;50.904;6.136;2023-01-30T13:19:20;6.80;99.90
12568;DHT22;6349;50.904;6.136;2023-01-30T13:21:36;6.70;99.90
12568;DHT22;6349;50.904;6.136;2023-01-30T13:23:58;6.80;99.90
12568;DHT22;6349;50.904;6.136;2023-01-30T13:26:17;6.80;99.90
12568;DHT22;6349;50.904;6.136;2023-01-30T13:28:28;6.80;99.90
12568;DHT22;6349;50.904;6.136;2023-01-30T13:30:33;6.90;99.90
12568;DHT22;6349;50.904;6.136;2023-01-30T13:32:39;6.90;99.90
12568;DHT22;6349;50.904;6.136;2023-01-30T13:34:44;6.90;99.90
12568;DHT22;6349;50.904;6.136;2023-01-30T13:36:55;6.90;99.90
12568;DHT22;6349;50.904;6.136;2023-01-30T13:39:04;6.80;99.90
12568;DHT22;6349;50.904;6.136;2023-01-30T13:41:09;6.90;99.90
12568;DHT22;6349;50.904;6.136;2023-01-30T13:43:24;6.90;99.90
12568;DHT22;6349;50.904;6.136;2023-01-30T13:45:32;7.00;99.90
12568;DHT22;6349;50.904;6.136;2023-01-30T13:50:35;6.90;99.90
12568;DHT22;6349;50.904;6.136;2023-01-30T13:53:07;7.00;99.90
12568;DHT22;6349;50.904;6.136;2023-01-30T13:55:29;7.00;99.90
12568;DHT22;6349;50.904;6.136;2023-01-30T13:57:44;7.10;99.90
12568;DHT22;6349;50.904;6.136;2023-01-30T14:00:25;7.00;99.90
12568;DHT22;6349;50.904;6.136;2023-01-30T14:02:27;7.00;99.90
12568;DHT22;6349;50.904;6.136;2023-01-30T14:06:43;7.00;99.90
12568;DHT22;6349;50.904;6.136;2023-01-30T14:08:48;7.00;99.90
12568;DHT22;6349;50.904;6.136;2023-01-30T14:10:51;7.00;99.90
12568;DHT22;6349;50.904;6.136;2023-01-30T14:12:53;6.90;99.90
12568;DHT22;6349;50.904;6.136;2023-01-30T14:17:27;6.90;99.90
12568;DHT22;6349;50.904;6.136;2023-01-30T14:19:52;6.90;99.90
12568;DHT22;6349;50.904;6.136;2023-01-30T14:22:21;6.90;99.90
12568;DHT22;6349;50.904;6.136;2023-01-30T14:24:23;6.80;99.90
12568;DHT22;6349;50.904;6.136;2023-01-30T14:28:52;6.90;99.90
12568;DHT22;6349;50.904;6.136;2023-01-30T14:30:58;6.90;99.90
12568;DHT22;6349;50.904;6.136;2023-01-30T14:33:02;6.90;99.90
12568;DHT22;6349;50.904;6.136;2023-01-30T14:39:48;6.80;99.90
12568;DHT22;6349;50.904;6.136;2023-01-30T14:42:20;6.90;99.90
12568;DHT22;6349;50.904;6.136;2023-01-30T14:47:02;6.90;99.90
12568;DHT22;6349;50.904;6.136;2023-01-30T14:49:24;6.90;99.90
12568;DHT22;6349;50.904;6.136;2023-01-30T14:51:33;7.00;99.90
12568;DHT22;6349;50.904;6.136;2023-01-30T14:54:23;7.00;99.90